sensor_id;sensor_type;location;lat;lon;timestamp;temperature;humidity
18611;DHT22;9435;52.122;5.502;2023-10-13T00:01:53;17.00;99.90
18611;DHT22;9435;52.122;5.502;2023-10-13T00:04:21;17.00;99.90
18611;DHT22;9435;52.122;5.502;2023-10-13T00:06:52;17.10;99.90
18611;DHT22;9435;52.122;5.502;2023-10-13T00:09:19;17.10;99.90
18611;DHT22;9435;52.122;5.502;2023-10-13T00:11:51;17.00;99.90
18611;DHT22;9435;52.122;5.502;2023-10-13T00:14:19;17.10;99.90
18611;DHT22;9435;52.122;5.502;2023-10-13T00:16:48;17.00;99.90
18611;DHT22;9435;52.122;5.502;2023-10-13T00:19:29;17.00;99.90
18611;DHT22;9435;52.122;5.502;2023-10-13T00:22:06;17.10;99.90
18611;DHT22;9435;52.122;5.502;2023-10-13T00:24:37;17.10;99.90
18611;DHT22;9435;52.122;5.502;2023-10-13T00:27:11;17.00;99.90
18611;DHT22;9435;52.122;5.502;2023-10-13T00:29:55;17.00;99.90
18611;DHT22;9435;52.122;5.502;2023-10-13T00:32:42;17.10;99.90
18611;DHT22;9435;52.122;5.502;2023-10-13T00:35:10;17.00;99.90
18611;DHT22;9435;52.122;5.502;2023-10-13T00:37:42;17.00;99.90
18611;DHT22;9435;52.122;5.502;2023-10-13T00:40:11;17.00;99.90
18611;DHT22;9435;52.122;5.502;2023-10-13T00:43:03;17.10;99.90
18611;DHT22;9435;52.122;5.502;2023-10-13T00:45:54;17.00;99.90
18611;DHT22;9435;52.122;5.502;2023-10-13T00:48:21;17.10;99.90
18611;DHT22;9435;52.122;5.502;2023-10-13T00:50:50;17.10;99.90
18611;DHT22;9435;52.122;5.502;2023-10-13T00:53:18;17.10;99.90
18611;DHT22;9435;52.122;5.502;2023-10-13T00:55:46;17.10;99.90
18611;DHT22;9435;52.122;5.502;2023-10-13T00:58:13;17.10;99.90
18611;DHT22;9435;52.122;5.502;2023-10-13T01:00:48;17.10;99.90
18611;DHT22;9435;52.122;5.502;2023-10-13T01:03:22;17.00;99.90
18611;DHT22;9435;52.122;5.502;2023-10-13T01:05:54;17.10;99.90
18611;DHT22;9435;52.122;5.502;2023-10-13T01:08:32;17.00;99.90
18611;DHT22;9435;52.122;5.502;2023-10-13T01:11:03;17.00;99.90
18611;DHT22;9435;52.122;5.502;2023-10-13T01:13:32;17.00;99.90
18611;DHT22;9435;52.122;5.502;2023-10-13T01:16:02;17.10;99.90
18611;DHT22;9435;52.122;5.502;2023-10-13T01:18:28;17.10;99.90
18611;DHT22;9435;52.122;5.502;2023-10-13T01:20:55;17.10;99.90
18611;DHT22;9435;52.122;5.502;2023-10-13T01:23:26;17.00;99.90
18611;DHT22;9435;52.122;5.502;2023-10-13T01:25:54;17.10;99.90
18611;DHT22;9435;52.122;5.502;2023-10-13T01:28:22;17.00;99.90
18611;DHT22;9435;52.122;5.502;2023-10-13T01:30:49;17.10;99.90
18611;DHT22;9435;52.122;5.502;2023-10-13T01:33:16;17.10;99.90
18611;DHT22;9435;52.122;5.502;2023-10-13T01:35:51;17.10;99.90
18611;DHT22;9435;52.122;5.502;2023-10-13T01:38:18;17.10;99.90
18611;DHT22;9435;52.122;5.502;2023-10-13T01:40:47;17.10;99.90
18611;DHT22;9435;52.122;5.502;2023-10-13T01:43:17;17.10;99.90
18611;DHT22;9435;52.122;5.502;2023-10-13T01:45:44;17.00;99.90
18611;DHT22;9435;52.122;5.502;2023-10-13T01:48:15;17.00;99.90
18611;DHT22;9435;52.122;5.502;2023-10-13T01:50:45;17.00;99.90
18611;DHT22;9435;52.122;5.502;2023-10-13T01:53:14;17.00;99.90
18611;DHT22;9435;52.122;5.502;2023-10-13T01:55:43;17.00;99.90
18611;DHT22;9435;52.122;5.502;2023-10-13T01:58:11;17.10;99.90
18611;DHT22;9435;52.122;5.502;2023-10-13T02:00:41;17.10;99.90
18611;DHT22;9435;52.122;5.502;2023-10-13T02:03:09;17.00;99.90
18611;DHT22;9435;52.122;5.502;2023-10-13T02:05:41;17.00;99.90
18611;DHT22;9435;52.122;5.502;2023-10-13T02:08:13;17.00;99.90
18611;DHT22;9435;52.122;5.502;2023-10-13T02:10:45;17.20;99.90
18611;DHT22;9435;52.122;5.502;2023-10-13T02:13:15;17.10;99.90
18611;DHT22;9435;52.122;5.502;2023-10-13T02:15:44;17.00;99.90
18611;DHT22;9435;52.122;5.502;2023-10-13T02:18:12;17.10;99.90
18611;DHT22;9435;52.122;5.502;2023-10-13T02:20:39;17.00;99.90
18611;DHT22;9435;52.122;5.502;2023-10-13T02:23:11;17.10;99.90
18611;DHT22;9435;52.122;5.502;2023-10-13T02:25:38;17.10;99.90
18611;DHT22;9435;52.122;5.502;2023-10-13T02:28:11;17.10;99.90
18611;DHT22;9435;52.122;5.502;2023-10-13T02:30:43;17.10;99.90
18611;DHT22;9435;52.122;5.502;2023-10-13T02:33:13;17.00;99.90
18611;DHT22;9435;52.122;5.502;2023-10-13T02:35:46;17.10;99.90
18611;DHT22;9435;52.122;5.502;2023-10-13T02:38:19;17.00;99.90
18611;DHT22;9435;52.122;5.502;2023-10-13T02:40:54;17.10;99.90
18611;DHT22;9435;52.122;5.502;2023-10-13T02:43:21;17.00;99.90
18611;DHT22;9435;52.122;5.502;2023-10-13T02:45:55;17.00;99.90
18611;DHT22;9435;52.122;5.502;2023-10-13T02:48:25;17.00;99.90
18611;DHT22;9435;52.122;5.502;2023-10-13T02:50:58;17.00;99.90
18611;DHT22;9435;52.122;5.502;2023-10-13T02:53:28;17.10;99.90
18611;DHT22;9435;52.122;5.502;2023-10-13T02:55:56;16.90;99.90
18611;DHT22;9435;52.122;5.502;2023-10-13T02:58:29;17.00;99.90
18611;DHT22;9435;52.122;5.502;2023-10-13T03:01:07;17.10;99.90
18611;DHT22;9435;52.122;5.502;2023-10-13T03:03:45;17.00;99.90
18611;DHT22;9435;52.122;5.502;2023-10-13T03:06:20;17.00;99.90
18611;DHT22;9435;52.122;5.502;2023-10-13T03:08:49;17.00;99.90
18611;DHT22;9435;52.122;5.502;2023-10-13T03:11:17;17.00;99.90
18611;DHT22;9435;52.122;5.502;2023-10-13T03:13:48;17.00;99.90
18611;DHT22;9435;52.122;5.502;2023-10-13T03:16:19;17.00;99.90
18611;DHT22;9435;52.122;5.502;2023-10-13T03:18:47;17.00;99.90
18611;DHT22;9435;52.122;5.502;2023-10-13T03:21:22;17.00;99.90
18611;DHT22;9435;52.122;5.502;2023-10-13T03:23:57;16.90;99.90
18611;DHT22;9435;52.122;5.502;2023-10-13T03:26:30;17.00;99.90
18611;DHT22;9435;52.122;5.502;2023-10-13T03:29:02;17.00;99.90
18611;DHT22;9435;52.122;5.502;2023-10-13T03:31:31;16.90;99.90
18611;DHT22;9435;52.122;5.502;2023-10-13T03:34:04;16.90;99.90
18611;DHT22;9435;52.122;5.502;2023-10-13T03:36:37;17.00;99.90
18611;DHT22;9435;52.122;5.502;2023-10-13T03:39:23;17.00;99.90
18611;DHT22;9435;52.122;5.502;2023-10-13T03:41:57;16.90;99.90
18611;DHT22;9435;52.122;5.502;2023-10-13T03:44:25;16.90;99.90
18611;DHT22;9435;52.122;5.502;2023-10-13T03:46:58;17.00;99.90
18611;DHT22;9435;52.122;5.502;2023-10-13T03:49:44;17.00;99.90
18611;DHT22;9435;52.122;5.502;2023-10-13T03:52:11;16.90;99.90
18611;DHT22;9435;52.122;5.502;2023-10-13T03:54:39;17.00;99.90
18611;DHT22;9435;52.122;5.502;2023-10-13T03:57:06;17.00;99.90
18611;DHT22;9435;52.122;5.502;2023-10-13T03:59:37;16.90;99.90
18611;DHT22;9435;52.122;5.502;2023-10-13T04:02:07;16.90;99.90
18611;DHT22;9435;52.122;5.502;2023-10-13T04:04:43;16.90;99.90
18611;DHT22;9435;52.122;5.502;2023-10-13T04:07:15;16.90;99.90
18611;DHT22;9435;52.122;5.502;2023-10-13T04:09:56;16.90;99.90
18611;DHT22;9435;52.122;5.502;2023-10-13T04:12:40;16.90;99.90
18611;DHT22;9435;52.122;5.502;2023-10-13T04:15:25;16.90;99.90
18611;DHT22;9435;52.122;5.502;2023-10-13T04:18:04;16.90;99.90
18611;DHT22;9435;52.122;5.502;2023-10-13T04:20:44;16.90;99.90
18611;DHT22;9435;52.122;5.502;2023-10-13T04:23:12;16.90;99.90
18611;DHT22;9435;52.122;5.502;2023-10-13T04:25:47;16.90;99.90
18611;DHT22;9435;52.122;5.502;2023-10-13T04:28:47;16.80;99.90
18611;DHT22;9435;52.122;5.502;2023-10-13T04:31:19;16.90;99.90
18611;DHT22;9435;52.122;5.502;2023-10-13T04:34:19;17.00;99.90
18611;DHT22;9435;52.122;5.502;2023-10-13T04:36:54;16.90;99.90
18611;DHT22;9435;52.122;5.502;2023-10-13T04:39:37;16.90;99.90
18611;DHT22;9435;52.122;5.502;2023-10-13T04:42:08;16.90;99.90
18611;DHT22;9435;52.122;5.502;2023-10-13T04:44:52;16.90;99.90
18611;DHT22;9435;52.122;5.502;2023-10-13T04:47:26;16.90;99.90
18611;DHT22;9435;52.122;5.502;2023-10-13T04:49:56;16.90;99.90
18611;DHT22;9435;52.122;5.502;2023-10-13T04:52:26;17.00;99.90
18611;DHT22;9435;52.122;5.502;2023-10-13T04:55:16;17.00;99.90
18611;DHT22;9435;52.122;5.502;2023-10-13T04:57:58;16.90;99.90
18611;DHT22;9435;52.122;5.502;2023-10-13T05:00:36;16.90;99.90
18611;DHT22;9435;52.122;5.502;2023-10-13T05:03:42;17.00;99.90
18611;DHT22;9435;52.122;5.502;2023-10-13T05:06:30;17.00;99.90
18611;DHT22;9435;52.122;5.502;2023-10-13T05:09:19;17.00;99.90
18611;DHT22;9435;52.122;5.502;2023-10-13T05:12:04;17.00;99.90
18611;DHT22;9435;52.122;5.502;2023-10-13T05:14:48;17.00;99.90
18611;DHT22;9435;52.122;5.502;2023-10-13T05:17:33;17.10;99.90
18611;DHT22;9435;52.122;5.502;2023-10-13T05:20:17;17.20;99.90
18611;DHT22;9435;52.122;5.502;2023-10-13T05:23:03;17.30;99.90
18611;DHT22;9435;52.122;5.502;2023-10-13T05:25:47;17.30;99.90
18611;DHT22;9435;52.122;5.502;2023-10-13T05:28:32;17.30;99.90
18611;DHT22;9435;52.122;5.502;2023-10-13T05:31:16;17.40;99.90
18611;DHT22;9435;52.122;5.502;2023-10-13T05:34:01;17.40;99.90
18611;DHT22;9435;52.122;5.502;2023-10-13T05:36:45;17.40;99.90
18611;DHT22;9435;52.122;5.502;2023-10-13T05:39:32;17.50;99.90
18611;DHT22;9435;52.122;5.502;2023-10-13T05:42:17;17.40;99.90
18611;DHT22;9435;52.122;5.502;2023-10-13T05:45:01;17.50;99.90
18611;DHT22;9435;52.122;5.502;2023-10-13T05:47:45;17.50;99.90
18611;DHT22;9435;52.122;5.502;2023-10-13T05:50:27;17.50;99.90
18611;DHT22;9435;52.122;5.502;2023-10-13T05:53:11;17.40;99.90
18611;DHT22;9435;52.122;5.502;2023-10-13T05:56:01;17.40;99.90
18611;DHT22;9435;52.122;5.502;2023-10-13T05:58:46;17.30;99.90
18611;DHT22;9435;52.122;5.502;2023-10-13T06:01:30;17.30;99.90
18611;DHT22;9435;52.122;5.502;2023-10-13T06:04:15;17.30;99.90
18611;DHT22;9435;52.122;5.502;2023-10-13T06:06:59;17.20;99.90
18611;DHT22;9435;52.122;5.502;2023-10-13T06:09:44;17.30;99.90
18611;DHT22;9435;52.122;5.502;2023-10-13T06:12:30;17.20;99.90
18611;DHT22;9435;52.122;5.502;2023-10-13T06:15:14;17.20;99.90
18611;DHT22;9435;52.122;5.502;2023-10-13T06:17:58;17.20;99.90
18611;DHT22;9435;52.122;5.502;2023-10-13T06:20:43;17.20;99.90
18611;DHT22;9435;52.122;5.502;2023-10-13T06:23:27;17.20;99.90
18611;DHT22;9435;52.122;5.502;2023-10-13T06:26:12;17.20;99.90
18611;DHT22;9435;52.122;5.502;2023-10-13T06:28:58;17.20;99.90
18611;DHT22;9435;52.122;5.502;2023-10-13T06:31:25;17.20;99.90
18611;DHT22;9435;52.122;5.502;2023-10-13T06:33:52;17.20;99.90
18611;DHT22;9435;52.122;5.502;2023-10-13T06:36:21;17.30;99.90
18611;DHT22;9435;52.122;5.502;2023-10-13T06:38:48;17.20;99.90
18611;DHT22;9435;52.122;5.502;2023-10-13T06:41:20;17.30;99.90
18611;DHT22;9435;52.122;5.502;2023-10-13T06:43:57;17.40;99.90
18611;DHT22;9435;52.122;5.502;2023-10-13T06:46:30;17.40;99.90
18611;DHT22;9435;52.122;5.502;2023-10-13T06:48:59;17.30;99.90
18611;DHT22;9435;52.122;5.502;2023-10-13T06:51:28;17.40;99.90
18611;DHT22;9435;52.122;5.502;2023-10-13T06:54:04;17.40;99.90
18611;DHT22;9435;52.122;5.502;2023-10-13T06:56:36;17.40;99.90
18611;DHT22;9435;52.122;5.502;2023-10-13T06:59:06;17.40;99.90
18611;DHT22;9435;52.122;5.502;2023-10-13T07:01:33;17.50;99.90
18611;DHT22;9435;52.122;5.502;2023-10-13T07:04:06;17.50;99.90
18611;DHT22;9435;52.122;5.502;2023-10-13T07:06:39;17.50;99.90
18611;DHT22;9435;52.122;5.502;2023-10-13T07:09:10;17.70;99.90
18611;DHT22;9435;52.122;5.502;2023-10-13T07:11:54;17.80;99.90
18611;DHT22;9435;52.122;5.502;2023-10-13T07:14:28;17.70;99.90
18611;DHT22;9435;52.122;5.502;2023-10-13T07:16:56;17.80;99.90
18611;DHT22;9435;52.122;5.502;2023-10-13T07:19:25;17.80;99.90
18611;DHT22;9435;52.122;5.502;2023-10-13T07:21:54;17.80;99.90
18611;DHT22;9435;52.122;5.502;2023-10-13T07:24:24;17.90;99.90
18611;DHT22;9435;52.122;5.502;2023-10-13T07:26:53;17.90;99.90
18611;DHT22;9435;52.122;5.502;2023-10-13T07:29:30;17.90;99.90
18611;DHT22;9435;52.122;5.502;2023-10-13T07:31:59;18.00;99.90
18611;DHT22;9435;52.122;5.502;2023-10-13T07:34:28;17.90;99.90
18611;DHT22;9435;52.122;5.502;2023-10-13T07:36:58;18.00;99.90
18611;DHT22;9435;52.122;5.502;2023-10-13T07:39:27;18.00;99.90
18611;DHT22;9435;52.122;5.502;2023-10-13T07:42:00;18.00;99.90
18611;DHT22;9435;52.122;5.502;2023-10-13T07:44:35;18.00;99.90
18611;DHT22;9435;52.122;5.502;2023-10-13T07:47:11;17.90;99.90
18611;DHT22;9435;52.122;5.502;2023-10-13T07:49:40;18.00;99.90
18611;DHT22;9435;52.122;5.502;2023-10-13T07:52:09;18.00;99.90
18611;DHT22;9435;52.122;5.502;2023-10-13T07:55:02;18.00;99.90
18611;DHT22;9435;52.122;5.502;2023-10-13T07:57:38;18.00;99.90
18611;DHT22;9435;52.122;5.502;2023-10-13T08:00:21;18.10;99.90
18611;DHT22;9435;52.122;5.502;2023-10-13T08:03:12;18.10;99.90
18611;DHT22;9435;52.122;5.502;2023-10-13T08:05:57;18.10;99.90
18611;DHT22;9435;52.122;5.502;2023-10-13T08:08:24;18.20;99.90
18611;DHT22;9435;52.122;5.502;2023-10-13T08:11:00;18.20;99.90
18611;DHT22;9435;52.122;5.502;2023-10-13T08:13:35;18.20;99.90
18611;DHT22;9435;52.122;5.502;2023-10-13T08:16:04;18.10;99.90
18611;DHT22;9435;52.122;5.502;2023-10-13T08:18:35;18.20;99.90
18611;DHT22;9435;52.122;5.502;2023-10-13T08:21:07;18.40;99.90
18611;DHT22;9435;52.122;5.502;2023-10-13T08:23:42;18.30;99.90
18611;DHT22;9435;52.122;5.502;2023-10-13T08:26:27;18.30;99.90
18611;DHT22;9435;52.122;5.502;2023-10-13T08:29:11;18.40;99.90
18611;DHT22;9435;52.122;5.502;2023-10-13T08:31:57;18.30;99.90
18611;DHT22;9435;52.122;5.502;2023-10-13T08:35:00;18.40;99.90
18611;DHT22;9435;52.122;5.502;2023-10-13T08:37:41;18.40;99.90
18611;DHT22;9435;52.122;5.502;2023-10-13T08:40:23;18.40;99.90
18611;DHT22;9435;52.122;5.502;2023-10-13T08:43:05;18.50;99.90
18611;DHT22;9435;52.122;5.502;2023-10-13T08:45:38;18.50;99.90
18611;DHT22;9435;52.122;5.502;2023-10-13T08:48:26;18.50;99.90
18611;DHT22;9435;52.122;5.502;2023-10-13T08:50:59;18.50;99.90
18611;DHT22;9435;52.122;5.502;2023-10-13T08:53:41;18.50;99.90
18611;DHT22;9435;52.122;5.502;2023-10-13T08:56:18;18.60;99.90
18611;DHT22;9435;52.122;5.502;2023-10-13T08:58:58;18.60;99.90
18611;DHT22;9435;52.122;5.502;2023-10-13T09:01:36;18.50;99.90
18611;DHT22;9435;52.122;5.502;2023-10-13T09:04:14;18.60;99.90
18611;DHT22;9435;52.122;5.502;2023-10-13T09:06:59;18.60;99.90
18611;DHT22;9435;52.122;5.502;2023-10-13T09:09:45;18.60;99.90
18611;DHT22;9435;52.122;5.502;2023-10-13T09:12:37;18.60;99.90
18611;DHT22;9435;52.122;5.502;2023-10-13T09:15:06;18.70;99.90
18611;DHT22;9435;52.122;5.502;2023-10-13T09:17:45;18.60;99.90
18611;DHT22;9435;52.122;5.502;2023-10-13T09:20:15;18.70;99.90
18611;DHT22;9435;52.122;5.502;2023-10-13T09:22:59;18.60;99.90
18611;DHT22;9435;52.122;5.502;2023-10-13T09:25:35;18.60;99.90
18611;DHT22;9435;52.122;5.502;2023-10-13T09:28:03;18.60;99.90
18611;DHT22;9435;52.122;5.502;2023-10-13T09:30:43;18.60;99.90
18611;DHT22;9435;52.122;5.502;2023-10-13T09:33:10;18.60;99.90
18611;DHT22;9435;52.122;5.502;2023-10-13T09:35:43;18.60;99.90
18611;DHT22;9435;52.122;5.502;2023-10-13T09:38:15;18.70;99.90
18611;DHT22;9435;52.122;5.502;2023-10-13T09:40:42;18.60;99.90
18611;DHT22;9435;52.122;5.502;2023-10-13T09:43:17;18.70;99.90
18611;DHT22;9435;52.122;5.502;2023-10-13T09:45:46;18.70;99.90
18611;DHT22;9435;52.122;5.502;2023-10-13T09:48:32;18.70;99.90
18611;DHT22;9435;52.122;5.502;2023-10-13T09:51:02;18.80;99.90
18611;DHT22;9435;52.122;5.502;2023-10-13T09:53:30;18.80;99.90
18611;DHT22;9435;52.122;5.502;2023-10-13T09:56:03;18.70;99.90
18611;DHT22;9435;52.122;5.502;2023-10-13T09:58:50;18.80;99.90
18611;DHT22;9435;52.122;5.502;2023-10-13T10:01:25;18.80;99.90
18611;DHT22;9435;52.122;5.502;2023-10-13T10:04:07;18.80;99.90
18611;DHT22;9435;52.122;5.502;2023-10-13T10:06:37;18.70;99.90
18611;DHT22;9435;52.122;5.502;2023-10-13T10:09:10;18.80;99.90
18611;DHT22;9435;52.122;5.502;2023-10-13T10:12:06;18.70;99.90
18611;DHT22;9435;52.122;5.502;2023-10-13T10:14:56;18.70;99.90
18611;DHT22;9435;52.122;5.502;2023-10-13T10:17:25;18.70;99.90
18611;DHT22;9435;52.122;5.502;2023-10-13T10:19:56;18.80;99.90
18611;DHT22;9435;52.122;5.502;2023-10-13T10:22:28;18.80;99.90
18611;DHT22;9435;52.122;5.502;2023-10-13T10:24:56;18.80;99.90
18611;DHT22;9435;52.122;5.502;2023-10-13T10:27:25;18.90;99.90
18611;DHT22;9435;52.122;5.502;2023-10-13T10:29:56;18.90;99.90
18611;DHT22;9435;52.122;5.502;2023-10-13T10:32:35;18.90;99.90
18611;DHT22;9435;52.122;5.502;2023-10-13T10:35:05;18.90;99.90
18611;DHT22;9435;52.122;5.502;2023-10-13T10:37:42;18.90;99.90
18611;DHT22;9435;52.122;5.502;2023-10-13T10:40:14;19.00;99.90
18611;DHT22;9435;52.122;5.502;2023-10-13T10:42:58;19.00;99.90
18611;DHT22;9435;52.122;5.502;2023-10-13T10:45:27;19.00;99.90
18611;DHT22;9435;52.122;5.502;2023-10-13T10:47:58;19.10;99.90
18611;DHT22;9435;52.122;5.502;2023-10-13T10:50:27;19.20;99.90
18611;DHT22;9435;52.122;5.502;2023-10-13T10:53:04;19.30;99.90
18611;DHT22;9435;52.122;5.502;2023-10-13T10:55:35;19.40;99.90
18611;DHT22;9435;52.122;5.502;2023-10-13T10:58:02;19.40;99.90
18611;DHT22;9435;52.122;5.502;2023-10-13T11:00:34;19.50;99.90
18611;DHT22;9435;52.122;5.502;2023-10-13T11:03:12;19.60;99.90
18611;DHT22;9435;52.122;5.502;2023-10-13T11:05:44;19.60;99.90
18611;DHT22;9435;52.122;5.502;2023-10-13T11:08:23;19.70;99.90
18611;DHT22;9435;52.122;5.502;2023-10-13T11:10:58;19.80;99.90
18611;DHT22;9435;52.122;5.502;2023-10-13T11:13:26;19.80;99.90
18611;DHT22;9435;52.122;5.502;2023-10-13T11:15:57;19.90;99.90
18611;DHT22;9435;52.122;5.502;2023-10-13T11:18:29;19.90;99.90
18611;DHT22;9435;52.122;5.502;2023-10-13T11:20:59;19.90;99.90
18611;DHT22;9435;52.122;5.502;2023-10-13T11:23:32;19.90;99.90
18611;DHT22;9435;52.122;5.502;2023-10-13T11:26:02;19.90;99.90
18611;DHT22;9435;52.122;5.502;2023-10-13T11:28:30;19.80;99.90
18611;DHT22;9435;52.122;5.502;2023-10-13T11:31:00;19.80;99.90
18611;DHT22;9435;52.122;5.502;2023-10-13T11:33:43;19.80;99.90
18611;DHT22;9435;52.122;5.502;2023-10-13T11:36:14;19.80;99.90
18611;DHT22;9435;52.122;5.502;2023-10-13T11:38:44;19.80;99.90
18611;DHT22;9435;52.122;5.502;2023-10-13T11:41:15;19.80;99.90
18611;DHT22;9435;52.122;5.502;2023-10-13T11:43:46;19.80;99.90
18611;DHT22;9435;52.122;5.502;2023-10-13T11:46:27;19.90;99.90
18611;DHT22;9435;52.122;5.502;2023-10-13T11:49:12;19.90;99.90
18611;DHT22;9435;52.122;5.502;2023-10-13T11:51:56;19.90;99.90
18611;DHT22;9435;52.122;5.502;2023-10-13T11:54:36;20.00;99.90
18611;DHT22;9435;52.122;5.502;2023-10-13T11:57:07;19.90;99.90
18611;DHT22;9435;52.122;5.502;2023-10-13T11:59:35;19.90;99.90
18611;DHT22;9435;52.122;5.502;2023-10-13T12:02:11;19.90;99.90
18611;DHT22;9435;52.122;5.502;2023-10-13T12:04:56;19.90;99.90
18611;DHT22;9435;52.122;5.502;2023-10-13T12:07:25;20.00;99.90
18611;DHT22;9435;52.122;5.502;2023-10-13T12:10:10;20.10;99.90
18611;DHT22;9435;52.122;5.502;2023-10-13T12:12:42;20.10;99.90
18611;DHT22;9435;52.122;5.502;2023-10-13T12:15:12;20.20;99.90
18611;DHT22;9435;52.122;5.502;2023-10-13T12:18:00;20.20;99.90
18611;DHT22;9435;52.122;5.502;2023-10-13T12:20:29;20.20;99.90
18611;DHT22;9435;52.122;5.502;2023-10-13T12:23:01;20.20;99.90
18611;DHT22;9435;52.122;5.502;2023-10-13T12:25:43;20.20;99.90
18611;DHT22;9435;52.122;5.502;2023-10-13T12:28:26;20.20;99.90
18611;DHT22;9435;52.122;5.502;2023-10-13T12:30:55;20.20;99.90
18611;DHT22;9435;52.122;5.502;2023-10-13T12:33:25;20.20;99.90
18611;DHT22;9435;52.122;5.502;2023-10-13T12:35:59;20.30;99.90
18611;DHT22;9435;52.122;5.502;2023-10-13T12:38:49;20.30;99.90
18611;DHT22;9435;52.122;5.502;2023-10-13T12:41:35;20.30;99.90
18611;DHT22;9435;52.122;5.502;2023-10-13T12:44:34;20.30;99.90
18611;DHT22;9435;52.122;5.502;2023-10-13T12:47:19;20.30;99.90
18611;DHT22;9435;52.122;5.502;2023-10-13T12:50:04;20.20;99.90
18611;DHT22;9435;52.122;5.502;2023-10-13T12:53:00;20.30;99.90
18611;DHT22;9435;52.122;5.502;2023-10-13T12:55:27;20.20;99.90
18611;DHT22;9435;52.122;5.502;2023-10-13T12:57:56;20.20;99.90
18611;DHT22;9435;52.122;5.502;2023-10-13T13:00:23;20.20;99.90
18611;DHT22;9435;52.122;5.502;2023-10-13T13:02:51;20.20;99.90
18611;DHT22;9435;52.122;5.502;2023-10-13T13:05:22;20.20;99.90
18611;DHT22;9435;52.122;5.502;2023-10-13T13:07:54;20.10;99.90
18611;DHT22;9435;52.122;5.502;2023-10-13T13:10:22;20.10;99.90
18611;DHT22;9435;52.122;5.502;2023-10-13T13:13:06;20.10;99.90
18611;DHT22;9435;52.122;5.502;2023-10-13T13:15:34;20.10;99.90
18611;DHT22;9435;52.122;5.502;2023-10-13T13:18:01;20.10;99.90
18611;DHT22;9435;52.122;5.502;2023-10-13T13:20:36;20.00;99.90
18611;DHT22;9435;52.122;5.502;2023-10-13T13:23:05;20.00;99.90
18611;DHT22;9435;52.122;5.502;2023-10-13T13:25:32;19.90;99.90
18611;DHT22;9435;52.122;5.502;2023-10-13T13:28:00;19.90;99.90
18611;DHT22;9435;52.122;5.502;2023-10-13T13:30:32;19.90;99.90
18611;DHT22;9435;52.122;5.502;2023-10-13T13:33:00;19.80;99.90
18611;DHT22;9435;52.122;5.502;2023-10-13T13:35:37;19.80;99.90
18611;DHT22;9435;52.122;5.502;2023-10-13T13:38:04;19.70;99.90
18611;DHT22;9435;52.122;5.502;2023-10-13T13:40:37;19.60;99.90
18611;DHT22;9435;52.122;5.502;2023-10-13T13:43:05;19.60;99.90
18611;DHT22;9435;52.122;5.502;2023-10-13T13:45:34;19.50;99.90
18611;DHT22;9435;52.122;5.502;2023-10-13T13:48:07;19.50;99.90
18611;DHT22;9435;52.122;5.502;2023-10-13T13:50:41;19.40;99.90
18611;DHT22;9435;52.122;5.502;2023-10-13T13:53:10;19.40;99.90
18611;DHT22;9435;52.122;5.502;2023-10-13T13:55:37;19.30;99.90
18611;DHT22;9435;52.122;5.502;2023-10-13T13:58:05;19.30;99.90
18611;DHT22;9435;52.122;5.502;2023-10-13T14:00:37;19.20;99.90
18611;DHT22;9435;52.122;5.502;2023-10-13T14:03:08;19.20;99.90
18611;DHT22;9435;52.122;5.502;2023-10-13T14:05:41;19.20;99.90
18611;DHT22;9435;52.122;5.502;2023-10-13T14:08:08;19.10;99.90
18611;DHT22;9435;52.122;5.502;2023-10-13T14:10:37;19.10;99.90
18611;DHT22;9435;52.122;5.502;2023-10-13T14:13:18;19.10;99.90
18611;DHT22;9435;52.122;5.502;2023-10-13T14:15:49;19.10;99.90
18611;DHT22;9435;52.122;5.502;2023-10-13T14:18:22;19.00;99.90
18611;DHT22;9435;52.122;5.502;2023-10-13T14:20:56;19.00;99.90
18611;DHT22;9435;52.122;5.502;2023-10-13T14:23:29;18.90;99.90
18611;DHT22;9435;52.122;5.502;2023-10-13T14:25:57;18.80;99.90
18611;DHT22;9435;52.122;5.502;2023-10-13T14:28:24;18.80;99.90
18611;DHT22;9435;52.122;5.502;2023-10-13T14:31:04;18.80;99.90
18611;DHT22;9435;52.122;5.502;2023-10-13T14:33:35;18.80;99.90
18611;DHT22;9435;52.122;5.502;2023-10-13T14:36:03;18.70;99.90
18611;DHT22;9435;52.122;5.502;2023-10-13T14:38:30;18.70;99.90
18611;DHT22;9435;52.122;5.502;2023-10-13T14:40:57;18.70;99.90
18611;DHT22;9435;52.122;5.502;2023-10-13T14:43:24;18.60;99.90
18611;DHT22;9435;52.122;5.502;2023-10-13T14:45:53;18.70;99.90
18611;DHT22;9435;52.122;5.502;2023-10-13T14:48:21;18.60;99.90
18611;DHT22;9435;52.122;5.502;2023-10-13T14:50:50;18.60;99.90
18611;DHT22;9435;52.122;5.502;2023-10-13T14:53:18;18.60;99.90
18611;DHT22;9435;52.122;5.502;2023-10-13T14:55:47;18.60;99.90
18611;DHT22;9435;52.122;5.502;2023-10-13T14:58:17;18.60;99.90
18611;DHT22;9435;52.122;5.502;2023-10-13T15:00:44;18.60;99.90
18611;DHT22;9435;52.122;5.502;2023-10-13T15:03:11;18.60;99.90
18611;DHT22;9435;52.122;5.502;2023-10-13T15:05:40;18.60;99.90
18611;DHT22;9435;52.122;5.502;2023-10-13T15:08:09;18.50;99.90
18611;DHT22;9435;52.122;5.502;2023-10-13T15:10:36;18.60;99.90
18611;DHT22;9435;52.122;5.502;2023-10-13T15:13:03;18.50;99.90
18611;DHT22;9435;52.122;5.502;2023-10-13T15:15:30;18.50;99.90
18611;DHT22;9435;52.122;5.502;2023-10-13T15:17:58;18.50;99.90
18611;DHT22;9435;52.122;5.502;2023-10-13T15:20:26;18.50;99.90
18611;DHT22;9435;52.122;5.502;2023-10-13T15:22:55;18.50;99.90
18611;DHT22;9435;52.122;5.502;2023-10-13T15:25:25;18.50;99.90
18611;DHT22;9435;52.122;5.502;2023-10-13T15:28:00;18.40;99.90
18611;DHT22;9435;52.122;5.502;2023-10-13T15:30:29;18.50;99.90
18611;DHT22;9435;52.122;5.502;2023-10-13T15:33:10;18.50;99.90
18611;DHT22;9435;52.122;5.502;2023-10-13T15:35:38;18.50;99.90
18611;DHT22;9435;52.122;5.502;2023-10-13T15:38:10;18.50;99.90
18611;DHT22;9435;52.122;5.502;2023-10-13T15:40:41;18.50;99.90
18611;DHT22;9435;52.122;5.502;2023-10-13T15:43:09;18.50;99.90
18611;DHT22;9435;52.122;5.502;2023-10-13T15:45:36;18.50;99.90
18611;DHT22;9435;52.122;5.502;2023-10-13T15:48:08;18.50;99.90
18611;DHT22;9435;52.122;5.502;2023-10-13T15:50:38;18.40;99.90
18611;DHT22;9435;52.122;5.502;2023-10-13T15:53:11;18.50;99.90
18611;DHT22;9435;52.122;5.502;2023-10-13T15:55:39;18.50;99.90
18611;DHT22;9435;52.122;5.502;2023-10-13T15:58:07;18.50;99.90
18611;DHT22;9435;52.122;5.502;2023-10-13T16:00:35;18.40;99.90
18611;DHT22;9435;52.122;5.502;2023-10-13T16:03:04;18.50;99.90
18611;DHT22;9435;52.122;5.502;2023-10-13T16:05:37;18.40;99.90
18611;DHT22;9435;52.122;5.502;2023-10-13T16:08:06;18.40;99.90
18611;DHT22;9435;52.122;5.502;2023-10-13T16:10:38;18.40;99.90
18611;DHT22;9435;52.122;5.502;2023-10-13T16:13:06;18.40;99.90
18611;DHT22;9435;52.122;5.502;2023-10-13T16:15:40;18.40;99.90
18611;DHT22;9435;52.122;5.502;2023-10-13T16:18:09;18.40;99.90
18611;DHT22;9435;52.122;5.502;2023-10-13T16:20:36;18.30;99.90
18611;DHT22;9435;52.122;5.502;2023-10-13T16:23:04;18.30;99.90
18611;DHT22;9435;52.122;5.502;2023-10-13T16:25:32;18.40;99.90
18611;DHT22;9435;52.122;5.502;2023-10-13T16:28:00;18.30;99.90
18611;DHT22;9435;52.122;5.502;2023-10-13T16:30:29;18.30;99.90